Accueil
METAR-TAF:

METAR-TAF

Aéroports :

St. Michael, Alaska, États-Unis

latitude: 63-29-24N, longitude: 162-06-37W, altitude: 30 m

Observation

Le bulletin a été fait il y a 42 minutes, à 22:56 UTC
Vent 16 kt de sud-ouest
Température -14°C
Humidité 85%
Pression 1008 hPa
Visibilité: 14.5 km
Ciel couvert à une hauteur de 1900 ft
neige faible

METAR: PAMK 222256Z AUTO 23016KT 9SM -SN OVC019 M14/M16 A2978 RMK AO2 SLP087 P0000 T11441161 FZRANO

Heure: 14:38 (23:38 UTC)


TAF: absent

Observations et prévisions météorologiques de plus de 4000 aéroports (messages METAR et TAF).

Les stations disponibles sont représentées par des disques jaunes et rouges sur la carte.

Passer la souris dessus pour voir le nom de la station.

Cliquer dessus pour voir les observations et prévisions météorologiques.

Pour changer de carte: cliquez sur les boutons verts avec une croix noire pour zoomer, sur le bouton vert avec un tiret pour effectuer un zoom arrière, ou sur les flèches vertes pour les cartes adjacentes.


METAR-TAF: